Santaquin, UT

7:05 AM MST on February 13, 2016 (GMT -0700)
MesoWest | | Change Station
CLOSE
Current Station
Personal Weather Station
Location: Goshen, UT
Elevation: 5023 ft
Nearby Weather Stations
Active Advisory: Dense Fog Advisory

Elev 5023 ft 39.94 °N, 111.82 °W | Updated 1 hour ago

Overcast
Overcast
14 °F
Feels Like 14 °F
N
Wind Variable Wind from North
Gusts 0.0 mph

Today
High -- | Low -- °F
--% Chance of Precip.
Yesterday
High -- | Low -- °F
Precip. -- in
Pressure 30.30 in
Visibility 0.2 miles
Clouds Overcast 200 ft
Windchill 14 °F
Dew Point Not available.
Humidity Not available.
Rainfall in
Snow Depth Not available.
7:23 AM 6:00 PM
Waxing Crescent, 31% visible
METAR KPVU 131347Z 00000KT 1/4SM FZFG OVC002 M06/M07 A3030
Pressure 30.30 in
Visibility 0.2 miles
Clouds Overcast 200 ft
Windchill 14 °F
Dew Point Not available.
Humidity Not available.
Rainfall in
Snow Depth Not available.
7:23 AM 6:00 PM
Waxing Crescent, 31% visible
METAR KPVU 131347Z 00000KT 1/4SM FZFG OVC002 M06/M07 A3030

10-Day Weather Forecast

Almanac

Astronomy

Feb. 13, 2016 Rise Set
Actual Time
Civil Twilight
Nautical Twilight
Astronomical Twilight
Moon
Length of Visible Light
Length of Day
Tomorrow will be .
, % of the Moon is Illuminated

Today's Extremes

State Highs State Lows

Community

WunderPhotos

Upload Photos

1,892,556 photos uploaded!

WunderBlog® & News

Nearby

Air Quality

  Air Quality AQ Index Pollutant
Not available.

Snow Depth

Station Depth Elevation

Earthquake Activity

City Distance Mag. Time & Date
Minimum magnitude displayed is 2.5.

Coastal Water Temperatures

Place Temperature

Stations

Nearby Weather Stations

Station Location Temp. Windchill Dew Point Humidity Wind Precip. Elev Updated Type
                   

Watches & Warnings

Dense Fog Advisory
Issued: 4:07 AM MST Feb. 13, 2016 – National Weather Service

... Dense fog advisory in effect until 9 am MST this morning...

The National Weather Service in Salt Lake City has issued a dense
fog advisory... which is in effect until 9 am MST this morning.

* Affected area... the southern Wasatch front... mainly near and
south of Utah Lake.

* Visibilities... under one quarter of mile with local areas of
near zero visibility.

* Timing... the dense fog will start to thin out after about 900
am.

* Impacts... reduced visibility will impact travel through Utah
County... mainly between Lehi and Santaquin including I-15.


Precautionary/preparedness actions...

A dense fog advisory means visibilities will frequently be
reduced to less than one quarter mile. If driving... slow down...
use your low beam headlights... and leave plenty of distance ahead
of you.



For more information from NOAA/National Weather Service visit...
http://weather.Gov/saltlakecity (all lower case)